createdAt,value
2022-09-22T00:01:06.273Z,3.67
2022-09-22T00:03:34.472Z,4.27
2022-09-22T00:06:11.188Z,4.37
2022-09-22T00:08:39.586Z,7.00
2022-09-22T00:11:17.099Z,4.70
2022-09-22T00:13:45.433Z,3.77
2022-09-22T00:16:13.704Z,6.20
2022-09-22T00:18:40.619Z,4.57
2022-09-22T00:21:12.691Z,4.53
2022-09-22T00:23:39.888Z,5.00
2022-09-22T00:26:11.466Z,5.73
2022-09-22T00:28:38.719Z,4.87
2022-09-22T00:31:10.260Z,6.90
2022-09-22T00:33:39.378Z,5.33
2022-09-22T00:36:06.283Z,10.77
2022-09-22T00:38:33.596Z,5.73
2022-09-22T00:41:01.436Z,5.77
2022-09-22T00:43:30.322Z,5.77
2022-09-22T00:46:26.771Z,4.40
2022-09-22T00:48:57.349Z,8.60
2022-09-22T00:51:25.929Z,4.13
2022-09-22T00:53:52.922Z,4.13
2022-09-22T00:56:23.117Z,6.83
2022-09-22T00:58:58.567Z,4.73
2022-09-22T01:01:25.490Z,5.37
2022-09-22T01:03:52.287Z,5.00
2022-09-22T01:06:21.421Z,4.93
2022-09-22T01:08:48.224Z,7.50
2022-09-22T01:11:15.701Z,5.73
2022-09-22T01:14:01.053Z,4.53
2022-09-22T01:16:49.448Z,4.67
2022-09-22T01:19:38.042Z,6.67
2022-09-22T01:22:26.222Z,5.53
2022-09-22T01:25:09.789Z,7.00
2022-09-22T01:28:03.216Z,8.40
2022-09-22T01:30:43.854Z,4.10
2022-09-22T01:33:10.805Z,5.27
2022-09-22T01:35:57.627Z,9.23
2022-09-22T01:39:03.037Z,6.70
2022-09-22T01:41:56.178Z,12.60
2022-09-22T01:44:31.518Z,7.20
2022-09-22T01:47:04.053Z,7.87
2022-09-22T01:49:32.953Z,8.93
2022-09-22T01:52:03.019Z,10.33
2022-09-22T01:54:36.564Z,6.67
2022-09-22T01:57:10.305Z,8.87
2022-09-22T01:59:38.058Z,6.60
2022-09-22T02:02:10.259Z,7.43
2022-09-22T02:04:46.885Z,9.23
2022-09-22T02:07:17.943Z,10.27
2022-09-22T02:09:44.754Z,7.17
2022-09-22T02:12:11.505Z,8.00
2022-09-22T02:14:38.329Z,10.13
2022-09-22T02:17:05.142Z,7.73
2022-09-22T02:19:37.202Z,9.50
2022-09-22T02:22:05.061Z,8.53
2022-09-22T02:24:34.181Z,9.00
2022-09-22T02:27:03.628Z,7.80
2022-09-22T02:29:36.195Z,11.17
2022-09-22T02:32:05.702Z,8.70
2022-09-22T02:34:32.508Z,11.77
2022-09-22T02:37:08.656Z,11.37
2022-09-22T02:39:42.500Z,7.77
2022-09-22T02:42:20.412Z,10.77
2022-09-22T02:44:50.253Z,7.83
2022-09-22T02:47:23.534Z,10.80
2022-09-22T02:49:50.429Z,8.57
2022-09-22T02:52:19.227Z,9.97
2022-09-22T02:54:46.054Z,11.97
2022-09-22T02:57:12.826Z,14.73
2022-09-22T02:59:39.754Z,8.67
2022-09-22T03:02:06.570Z,10.17
2022-09-22T03:04:33.460Z,13.87
2022-09-22T03:07:00.265Z,12.90
2022-09-22T03:09:27.190Z,10.30
2022-09-22T03:11:54.038Z,12.17
2022-09-22T03:14:20.819Z,11.37
2022-09-22T03:16:47.605Z,14.43
2022-09-22T03:19:14.387Z,10.77
2022-09-22T03:21:41.176Z,10.40
2022-09-22T03:24:08.034Z,12.20
2022-09-22T03:26:35.021Z,11.43
2022-09-22T03:29:01.896Z,9.80
2022-09-22T03:31:28.761Z,11.13
2022-09-22T03:33:55.513Z,11.93
2022-09-22T03:36:22.405Z,16.23
2022-09-22T03:38:49.185Z,12.63
2022-09-22T03:41:15.941Z,10.57
2022-09-22T03:43:42.725Z,12.77
2022-09-22T03:46:09.591Z,16.47
2022-09-22T03:48:36.513Z,13.83
2022-09-22T03:51:03.342Z,15.90
2022-09-22T03:53:30.277Z,14.53
2022-09-22T03:56:07.841Z,14.00
2022-09-22T03:58:34.695Z,22.77
2022-09-22T04:01:01.548Z,12.80
2022-09-22T04:03:29.131Z,14.83
2022-09-22T04:05:55.936Z,14.23
2022-09-22T04:08:22.747Z,14.50
2022-09-22T04:10:49.564Z,15.60
2022-09-22T04:13:16.515Z,15.47
2022-09-22T04:15:43.355Z,13.33
2022-09-22T04:18:10.376Z,14.83
2022-09-22T04:20:38.556Z,18.80
2022-09-22T04:23:05.367Z,20.03
2022-09-22T04:25:32.701Z,15.13
2022-09-22T04:28:02.303Z,19.20
2022-09-22T04:30:32.362Z,19.27
2022-09-22T04:33:01.971Z,17.77
2022-09-22T04:35:28.887Z,16.60
2022-09-22T04:37:56.160Z,14.63
2022-09-22T04:40:23.253Z,13.93
2022-09-22T04:42:50.312Z,15.27
2022-09-22T04:45:17.186Z,19.03
2022-09-22T04:47:51.568Z,18.00
2022-09-22T04:50:19.253Z,14.40
2022-09-22T04:52:46.926Z,18.70
2022-09-22T04:55:15.557Z,16.67
2022-09-22T04:57:43.334Z,18.10
2022-09-22T05:00:10.638Z,19.40
2022-09-22T05:02:37.518Z,20.37
2022-09-22T05:05:05.872Z,18.17
2022-09-22T05:07:32.776Z,17.37
2022-09-22T05:09:59.673Z,19.53
2022-09-22T05:12:27.189Z,22.70
2022-09-22T05:14:53.979Z,17.37
2022-09-22T05:17:20.865Z,22.10
2022-09-22T05:19:47.705Z,17.90
2022-09-22T05:22:14.548Z,18.90
2022-09-22T05:24:42.532Z,21.20
2022-09-22T05:27:09.397Z,18.03
2022-09-22T05:29:36.208Z,18.43
2022-09-22T05:32:03.100Z,25.17
2022-09-22T05:34:29.986Z,21.27
2022-09-22T05:36:56.778Z,20.70
2022-09-22T05:39:23.597Z,19.70
2022-09-22T05:41:50.386Z,18.17
2022-09-22T05:44:17.164Z,19.13
2022-09-22T05:46:44.183Z,21.87
2022-09-22T05:49:10.958Z,21.27
2022-09-22T05:51:37.762Z,17.73
2022-09-22T05:54:04.641Z,19.13
2022-09-22T05:56:31.911Z,17.87
2022-09-22T05:58:58.761Z,22.97
2022-09-22T06:01:25.657Z,20.57
2022-09-22T06:03:52.505Z,21.83
2022-09-22T06:06:19.334Z,18.30
2022-09-22T06:08:48.868Z,18.07
2022-09-22T06:11:15.941Z,17.50
2022-09-22T06:13:44.365Z,16.63
2022-09-22T06:16:11.185Z,22.43
2022-09-22T06:18:37.966Z,15.20
2022-09-22T06:21:04.902Z,17.10
2022-09-22T06:23:31.986Z,21.03
2022-09-22T06:25:59.195Z,19.77
2022-09-22T06:28:26.147Z,18.83
2022-09-22T06:30:52.941Z,20.70
2022-09-22T06:33:20.161Z,19.33
2022-09-22T06:35:46.954Z,19.83
2022-09-22T06:38:15.139Z,23.47
2022-09-22T06:40:42.500Z,22.27
2022-09-22T06:43:15.210Z,16.87
2022-09-22T06:45:42.949Z,20.77
2022-09-22T06:48:12.861Z,20.60
2022-09-22T06:50:41.012Z,16.43
2022-09-22T06:53:09.054Z,19.70
2022-09-22T06:55:36.059Z,20.17
2022-09-22T06:58:03.156Z,17.93
2022-09-22T07:00:33.782Z,20.47
2022-09-22T07:03:05.222Z,26.87
2022-09-22T07:05:33.551Z,19.50
2022-09-22T07:08:00.916Z,21.10
2022-09-22T07:10:27.968Z,19.23
2022-09-22T07:12:55.851Z,26.60
2022-09-22T07:15:22.611Z,20.07
2022-09-22T07:17:52.923Z,19.33
2022-09-22T07:20:22.019Z,21.27
2022-09-22T07:22:48.817Z,20.27
2022-09-22T07:25:16.416Z,19.07
2022-09-22T07:27:43.406Z,15.43
2022-09-22T07:30:10.703Z,18.43
2022-09-22T07:32:37.468Z,19.77
2022-09-22T07:35:04.555Z,22.53
2022-09-22T07:37:33.260Z,18.20
2022-09-22T07:40:02.733Z,17.27
2022-09-22T07:42:29.602Z,19.77
2022-09-22T07:45:15.108Z,17.27
2022-09-22T07:48:04.108Z,19.17
2022-09-22T07:50:30.948Z,22.37
2022-09-22T07:52:57.750Z,15.20
2022-09-22T07:55:25.025Z,15.70
2022-09-22T07:57:56.267Z,16.80
2022-09-22T08:00:27.456Z,17.87
2022-09-22T08:02:58.012Z,16.47
2022-09-22T08:05:26.618Z,16.57
2022-09-22T08:07:57.249Z,18.08
2022-09-22T08:10:24.387Z,13.05
2022-09-22T08:12:54.912Z,14.93
2022-09-22T08:15:26.782Z,14.10
2022-09-22T08:17:57.234Z,15.77
2022-09-22T08:20:26.354Z,20.42
2022-09-22T08:22:54.091Z,15.73
2022-09-22T08:25:20.899Z,14.77
2022-09-22T08:27:47.668Z,14.98
2022-09-22T08:30:14.558Z,14.68
2022-09-22T08:32:41.355Z,15.20
2022-09-22T08:35:09.074Z,17.27
2022-09-22T08:37:36.926Z,16.40
2022-09-22T08:40:06.126Z,10.93
2022-09-22T08:42:33.121Z,13.80
2022-09-22T08:45:30.846Z,14.55
2022-09-22T08:48:20.974Z,12.90
2022-09-22T08:51:14.889Z,13.50
2022-09-22T08:53:45.177Z,11.75
2022-09-22T08:56:30.624Z,14.40
2022-09-22T08:59:18.047Z,9.80
2022-09-22T09:01:52.509Z,13.73
2022-09-22T09:04:45.833Z,11.80
2022-09-22T09:07:52.994Z,9.32
2022-09-22T09:10:32.892Z,14.43
2022-09-22T09:13:29.049Z,11.82
2022-09-22T09:16:10.549Z,10.63
2022-09-22T09:18:39.395Z,10.57
2022-09-22T09:21:09.006Z,16.45
2022-09-22T09:26:26.227Z,9.00
2022-09-22T09:28:59.223Z,13.82
2022-09-22T09:31:38.369Z,10.60
2022-09-22T09:34:11.638Z,11.82
2022-09-22T09:36:45.585Z,10.77
2022-09-22T09:39:29.562Z,9.77
2022-09-22T09:41:56.403Z,11.50
2022-09-22T09:44:32.826Z,11.73
2022-09-22T09:47:19.610Z,11.00
2022-09-22T09:49:52.548Z,9.32
2022-09-22T09:52:20.972Z,12.43
2022-09-22T09:54:47.825Z,8.43
2022-09-22T09:57:15.297Z,9.55
2022-09-22T10:00:02.745Z,10.23
2022-09-22T10:02:31.757Z,7.55
2022-09-22T10:05:07.585Z,11.98
2022-09-22T10:07:52.375Z,12.05
2022-09-22T10:10:29.014Z,15.38
2022-09-22T10:13:20.161Z,8.77
2022-09-22T10:15:59.838Z,16.55
2022-09-22T10:18:26.670Z,11.48
2022-09-22T10:21:15.590Z,10.43
2022-09-22T10:23:50.224Z,10.75
2022-09-22T10:26:19.499Z,11.60
2022-09-22T10:28:50.884Z,9.93
2022-09-22T10:31:24.960Z,16.00
2022-09-22T10:33:58.911Z,11.55
2022-09-22T10:36:29.057Z,9.13
2022-09-22T10:38:59.547Z,9.82
2022-09-22T10:41:30.893Z,14.85
2022-09-22T10:44:38.768Z,10.48
2022-09-22T10:47:35.470Z,6.20
2022-09-22T10:50:05.294Z,11.63
2022-09-22T10:52:50.131Z,12.27
2022-09-22T10:55:42.610Z,9.75
2022-09-22T10:58:54.234Z,8.60
2022-09-22T11:01:32.797Z,8.23
2022-09-22T11:04:27.464Z,11.30
2022-09-22T11:07:34.131Z,9.55
2022-09-22T11:10:42.195Z,12.40
2022-09-22T11:13:12.982Z,10.00
2022-09-22T11:15:58.389Z,9.55
2022-09-22T11:18:46.767Z,8.48
2022-09-22T11:21:26.836Z,8.05
2022-09-22T11:23:53.624Z,10.73
2022-09-22T11:26:32.059Z,12.80
2022-09-22T11:29:06.730Z,7.68
2022-09-22T11:32:04.095Z,9.45
2022-09-22T11:34:36.719Z,12.88
2022-09-22T11:37:28.341Z,12.07
2022-09-22T11:40:29.530Z,13.25
2022-09-22T11:43:18.110Z,12.38
2022-09-22T11:46:17.279Z,8.05
2022-09-22T11:49:11.930Z,8.60
2022-09-22T11:52:06.929Z,8.27
2022-09-22T11:55:00.409Z,11.20
2022-09-22T11:57:30.043Z,11.15
2022-09-22T12:00:05.463Z,6.90
2022-09-22T12:02:35.011Z,8.57
2022-09-22T12:05:26.135Z,8.52
2022-09-22T12:08:23.987Z,7.95
2022-09-22T12:10:52.793Z,7.20
2022-09-22T12:13:27.367Z,7.38
2022-09-22T12:16:15.311Z,6.78
2022-09-22T12:19:13.797Z,7.85
2022-09-22T12:21:59.022Z,12.95
2022-09-22T12:24:25.981Z,7.45
2022-09-22T12:26:53.686Z,6.85
2022-09-22T12:29:20.824Z,8.27
2022-09-22T12:31:49.033Z,9.60
2022-09-22T12:34:39.305Z,8.15
2022-09-22T12:37:18.959Z,9.38
2022-09-22T12:39:48.767Z,8.10
2022-09-22T12:42:30.466Z,10.30
2022-09-22T12:44:58.944Z,9.10
2022-09-22T12:47:35.914Z,6.55
2022-09-22T12:50:27.007Z,7.95
2022-09-22T12:52:54.423Z,6.53
2022-09-22T12:55:29.983Z,8.82
2022-09-22T12:58:00.198Z,7.93
2022-09-22T13:00:37.030Z,9.00
2022-09-22T13:03:26.004Z,7.32
2022-09-22T13:06:21.158Z,8.45
2022-09-22T13:08:53.936Z,10.65
2022-09-22T13:11:29.579Z,11.35
2022-09-22T13:13:56.401Z,10.60
2022-09-22T13:16:23.221Z,4.95
2022-09-22T13:18:53.151Z,6.63
2022-09-22T13:21:24.066Z,8.45
2022-09-22T13:23:58.574Z,6.70
2022-09-22T13:26:26.927Z,6.07
2022-09-22T13:29:17.290Z,8.82
2022-09-22T13:31:48.545Z,7.57
2022-09-22T13:34:18.365Z,6.50
2022-09-22T13:36:45.227Z,9.48
2022-09-22T13:39:14.938Z,7.68
2022-09-22T13:41:42.827Z,5.30
2022-09-22T13:44:10.681Z,9.40
2022-09-22T13:46:48.179Z,7.38
2022-09-22T13:49:38.309Z,7.72
2022-09-22T13:52:17.777Z,10.07
2022-09-22T13:54:45.241Z,6.15
2022-09-22T13:57:21.654Z,5.90
2022-09-22T13:59:48.770Z,5.50
2022-09-22T14:02:15.688Z,5.95
2022-09-22T14:04:53.479Z,7.82
2022-09-22T14:07:21.500Z,6.15
2022-09-22T14:09:48.359Z,11.27
2022-09-22T14:12:15.218Z,5.75
2022-09-22T14:14:42.253Z,11.25
2022-09-22T14:17:28.853Z,7.80
2022-09-22T14:20:02.735Z,8.13
2022-09-22T14:22:33.553Z,14.27
2022-09-22T14:25:01.696Z,11.90
2022-09-22T14:27:41.325Z,9.63
2022-09-22T14:30:21.339Z,10.18
2022-09-22T14:32:53.145Z,11.23
2022-09-22T14:35:27.173Z,8.13
2022-09-22T14:37:57.895Z,13.38
2022-09-22T14:40:29.424Z,10.80
2022-09-22T14:43:03.188Z,14.90
2022-09-22T14:45:32.775Z,15.82
2022-09-22T14:48:12.582Z,17.25
2022-09-22T14:50:41.882Z,16.33
2022-09-22T14:53:22.902Z,19.08
2022-09-22T14:55:52.017Z,18.50
2022-09-22T14:58:24.904Z,16.17
2022-09-22T15:01:13.300Z,11.32
2022-09-22T15:03:40.622Z,10.93
2022-09-22T15:06:11.714Z,11.23
2022-09-22T15:08:38.324Z,14.50
2022-09-22T15:11:05.203Z,9.77
2022-09-22T15:13:41.354Z,11.20
2022-09-22T15:16:41.137Z,13.27
2022-09-22T15:19:12.042Z,10.32
2022-09-22T15:21:46.142Z,11.73
2022-09-22T15:24:13.619Z,13.27
2022-09-22T15:26:41.868Z,11.07
2022-09-22T15:29:09.102Z,8.63
2022-09-22T15:31:36.582Z,9.60
2022-09-22T15:34:03.398Z,12.82
2022-09-22T15:36:32.062Z,10.07
2022-09-22T15:39:01.088Z,9.32
2022-09-22T15:41:28.024Z,10.35
2022-09-22T15:43:55.099Z,6.85
2022-09-22T15:46:29.279Z,7.70
2022-09-22T15:49:00.300Z,6.40
2022-09-22T15:51:27.121Z,9.38
2022-09-22T15:53:54.209Z,6.07
2022-09-22T15:56:21.175Z,7.88
2022-09-22T15:58:47.988Z,7.40
2022-09-22T16:01:17.578Z,7.68
2022-09-22T16:03:44.622Z,8.65
2022-09-22T16:06:12.793Z,7.63
2022-09-22T16:08:46.846Z,5.07
2022-09-22T16:11:15.382Z,11.45
2022-09-22T16:13:43.278Z,5.80
2022-09-22T16:16:10.461Z,5.13
2022-09-22T16:18:39.594Z,9.60
2022-09-22T16:21:07.069Z,5.45
2022-09-22T16:23:34.864Z,4.40
2022-09-22T16:26:01.644Z,5.60
2022-09-22T16:28:30.534Z,8.98
2022-09-22T16:31:05.032Z,7.97
2022-09-22T16:33:33.002Z,10.15
2022-09-22T16:35:59.783Z,6.88
2022-09-22T16:38:27.579Z,7.75
2022-09-22T16:41:04.554Z,9.27
2022-09-22T16:43:31.762Z,6.30
2022-09-22T16:46:18.229Z,7.47
2022-09-22T16:48:45.104Z,5.35
2022-09-22T16:51:19.304Z,6.65
2022-09-22T16:53:55.908Z,6.20
2022-09-22T16:56:24.090Z,5.22
2022-09-22T16:58:51.342Z,5.95
2022-09-22T17:01:19.998Z,5.00
2022-09-22T17:03:48.199Z,8.88
2022-09-22T17:06:15.938Z,7.45
2022-09-22T17:08:45.937Z,12.43
2022-09-22T17:11:13.634Z,8.25
2022-09-22T17:13:43.442Z,8.00
2022-09-22T17:16:30.422Z,11.18
2022-09-22T17:19:05.334Z,5.55
2022-09-22T17:21:34.708Z,5.35
2022-09-22T17:24:02.076Z,5.32
2022-09-22T17:26:32.771Z,3.70
2022-09-22T17:28:59.860Z,6.15
2022-09-22T17:31:27.867Z,7.95
2022-09-22T17:33:55.122Z,5.45
2022-09-22T17:36:24.179Z,6.75
2022-09-22T17:38:56.032Z,8.55
2022-09-22T17:41:27.537Z,7.13
2022-09-22T17:44:02.167Z,6.18
2022-09-22T17:46:35.241Z,7.38
2022-09-22T17:49:20.603Z,6.00
2022-09-22T17:52:07.025Z,4.20
2022-09-22T17:54:59.550Z,3.40
2022-09-22T17:57:32.681Z,3.47
2022-09-22T17:59:59.719Z,5.32
2022-09-22T18:02:28.117Z,6.50
2022-09-22T18:04:55.080Z,4.45
2022-09-22T18:07:23.345Z,4.65
2022-09-22T18:09:50.894Z,3.97
2022-09-22T18:12:21.637Z,3.70
2022-09-22T18:14:50.201Z,4.18
2022-09-22T18:17:19.181Z,6.88
2022-09-22T18:19:45.993Z,4.80
2022-09-22T18:22:16.678Z,3.85
2022-09-22T18:24:43.918Z,4.53
2022-09-22T18:27:13.350Z,4.57
2022-09-22T18:29:40.121Z,7.78
2022-09-22T18:32:06.903Z,4.43
2022-09-22T18:34:33.726Z,7.38
2022-09-22T18:37:04.567Z,3.72
2022-09-22T18:39:31.661Z,5.53
2022-09-22T18:41:58.571Z,5.07
2022-09-22T18:44:26.467Z,4.80
2022-09-22T18:46:53.981Z,4.85
2022-09-22T18:49:20.822Z,6.00
2022-09-22T18:51:53.119Z,4.88
2022-09-22T18:54:21.429Z,6.63
2022-09-22T18:56:49.122Z,4.43
2022-09-22T18:59:20.695Z,4.40
2022-09-22T19:01:49.472Z,7.22
2022-09-22T19:04:17.721Z,7.47
2022-09-22T19:07:03.461Z,6.88
2022-09-22T19:09:30.273Z,5.88
2022-09-22T19:11:57.371Z,4.43
2022-09-22T19:14:24.469Z,5.65
2022-09-22T19:16:51.460Z,6.97
2022-09-22T19:19:20.430Z,6.60
2022-09-22T19:21:50.373Z,7.13
2022-09-22T19:24:23.220Z,7.55
2022-09-22T19:26:55.481Z,7.07
2022-09-22T19:29:22.585Z,4.35
2022-09-22T19:31:49.421Z,8.10
2022-09-22T19:34:17.204Z,6.85
2022-09-22T19:36:44.074Z,12.27
2022-09-22T19:39:10.889Z,7.38
2022-09-22T19:41:40.231Z,7.45
2022-09-22T19:44:07.185Z,6.80
2022-09-22T19:46:34.025Z,10.13
2022-09-22T19:49:00.960Z,9.57
2022-09-22T19:51:27.912Z,13.15
2022-09-22T19:53:54.665Z,10.88
2022-09-22T19:56:21.577Z,9.17
2022-09-22T19:58:48.458Z,13.25
2022-09-22T20:01:44.586Z,11.40
2022-09-22T20:04:16.091Z,7.68
2022-09-22T20:06:44.781Z,10.23
2022-09-22T20:09:11.699Z,11.10
2022-09-22T20:11:43.392Z,7.83
2022-09-22T20:14:20.394Z,8.57
2022-09-22T20:16:51.318Z,8.57
2022-09-22T20:19:18.297Z,5.87
2022-09-22T20:21:45.597Z,11.53
2022-09-22T20:24:13.989Z,9.03
2022-09-22T20:26:41.889Z,10.63
2022-09-22T20:29:09.469Z,9.13
2022-09-22T20:31:36.428Z,8.77
2022-09-22T20:34:05.767Z,8.87
2022-09-22T20:36:37.230Z,8.80
2022-09-22T20:39:05.733Z,10.30
2022-09-22T20:41:32.571Z,7.30
2022-09-22T20:43:59.399Z,8.70
2022-09-22T20:46:26.388Z,8.47
2022-09-22T20:48:55.467Z,6.87
2022-09-22T20:51:23.502Z,10.00
2022-09-22T20:53:50.504Z,8.60
2022-09-22T20:56:17.633Z,6.50
2022-09-22T20:58:45.292Z,9.03
2022-09-22T21:01:13.525Z,10.20
2022-09-22T21:03:40.430Z,8.80
2022-09-22T21:06:08.787Z,13.10
2022-09-22T21:08:57.931Z,11.60
2022-09-22T21:11:24.898Z,11.23
2022-09-22T21:13:53.996Z,9.10
2022-09-22T21:16:20.894Z,10.20
2022-09-22T21:18:51.750Z,10.97
2022-09-22T21:21:19.808Z,10.97
2022-09-22T21:23:48.411Z,11.33
2022-09-22T21:26:16.005Z,11.83
2022-09-22T21:28:43.145Z,10.63
2022-09-22T21:31:10.400Z,12.13
2022-09-22T21:33:39.868Z,10.00
2022-09-22T21:36:15.408Z,9.57
2022-09-22T21:38:49.263Z,9.60
2022-09-22T21:41:20.578Z,10.57
2022-09-22T21:43:47.568Z,9.00
2022-09-22T21:46:16.022Z,10.07
2022-09-22T21:48:43.168Z,16.53
2022-09-22T21:51:11.725Z,11.13
2022-09-22T21:53:39.454Z,12.57
2022-09-22T21:56:08.006Z,13.30
2022-09-22T21:58:38.914Z,11.00
2022-09-22T22:01:24.566Z,12.63
2022-09-22T22:03:53.257Z,11.30
2022-09-22T22:06:24.139Z,10.77
2022-09-22T22:09:15.757Z,15.30
2022-09-22T22:11:43.778Z,10.93
2022-09-22T22:14:11.830Z,9.47
2022-09-22T22:16:46.071Z,10.47
2022-09-22T22:19:16.571Z,12.27
2022-09-22T22:21:43.526Z,12.50
2022-09-22T22:24:17.526Z,16.13
2022-09-22T22:26:52.059Z,12.63
2022-09-22T22:29:19.408Z,11.27
2022-09-22T22:31:49.052Z,12.97
2022-09-22T22:34:17.124Z,13.03
2022-09-22T22:36:44.075Z,9.07
2022-09-22T22:39:11.346Z,11.53
2022-09-22T22:41:38.988Z,12.47
2022-09-22T22:44:07.089Z,12.13
2022-09-22T22:46:34.552Z,12.30
2022-09-22T22:49:01.397Z,13.43
2022-09-22T22:51:28.172Z,13.30
2022-09-22T22:53:57.694Z,11.37
2022-09-22T22:56:25.773Z,13.37
2022-09-22T22:58:52.729Z,15.10
2022-09-22T23:01:21.525Z,12.07
2022-09-22T23:03:52.860Z,14.70
2022-09-22T23:06:24.138Z,12.03
2022-09-22T23:08:51.059Z,18.87
2022-09-22T23:11:28.426Z,12.23
2022-09-22T23:13:59.513Z,16.07
2022-09-22T23:16:28.104Z,13.97
2022-09-22T23:18:57.598Z,14.87
2022-09-22T23:21:25.469Z,11.27
2022-09-22T23:23:53.351Z,12.20
2022-09-22T23:26:20.286Z,13.13
2022-09-22T23:28:47.155Z,12.93
2022-09-22T23:31:15.653Z,13.20
2022-09-22T23:33:43.822Z,14.10
2022-09-22T23:36:13.065Z,16.00
2022-09-22T23:38:39.911Z,12.43
2022-09-22T23:41:07.446Z,14.33
2022-09-22T23:43:34.241Z,13.07
2022-09-22T23:46:03.270Z,26.70
2022-09-22T23:48:30.950Z,15.00
2022-09-22T23:50:58.406Z,13.40
2022-09-22T23:53:28.038Z,14.83
2022-09-22T23:55:54.854Z,13.13
2022-09-22T23:58:22.656Z,16.57
